Time;durP1;ratioP1;P1;durP2;ratioP2;P2;SDS_P1;SDS_P2;PMS_P1;PMS_P2;Temp;Humidity;BMP_temperature;BMP_pressure;BME280_temperature;BME280_humidity;BME280_pressure;Samples;Min_cycle;Max_cycle;Signal;HPM_P1;HPM_P2
2021/04/15 00:02:05;;;;;;;1.20;1.10;;;0.40;99.90;;;0.63;100.00;-20698.75;5091424;28;20191;-66
2021/04/15 00:04:33;;;;;;;0.80;0.70;;;0.50;99.90;;;0.54;100.00;-20696.22;5072316;28;20204;-67
2021/04/15 00:07:00;;;;;;;0.80;0.80;;;0.50;99.90;;;0.51;100.00;-20695.38;5086060;28;20192;-68
2021/04/15 00:09:28;;;;;;;0.70;0.60;;;0.40;99.90;;;0.52;100.00;-20695.78;5091963;28;20723;-67
2021/04/15 00:11:55;;;;;;;0.70;0.60;;;0.20;99.90;;;0.53;100.00;-20695.94;5092975;28;20204;-67
2021/04/15 00:14:25;;;;;;;0.70;0.70;;;0.30;99.90;;;0.43;100.00;-20693.28;5093093;28;20188;-65
2021/04/15 00:16:51;;;;;;;0.70;0.63;;;0.30;99.90;;;0.41;100.00;-20692.84;5093017;28;20641;-66
2021/04/15 00:19:20;;;;;;;0.80;0.70;;;0.20;99.90;;;0.46;100.00;-20694.25;5088405;28;20200;-66
2021/04/15 00:21:47;;;;;;;0.70;0.60;;;0.20;99.90;;;0.36;100.00;-20691.31;5093008;28;20179;-65
2021/04/15 00:24:16;;;;;;;0.70;0.60;;;0.20;99.90;;;0.40;100.00;-20692.56;5092791;28;20234;-66
2021/04/15 00:26:43;;;;;;;0.80;0.77;;;0.10;99.90;;;0.31;100.00;-20690.06;5092540;28;20573;-66
2021/04/15 00:29:10;;;;;;;0.70;0.60;;;0.10;99.90;;;0.23;100.00;-20687.81;5092926;28;20212;-66
2021/04/15 00:31:37;;;;;;;0.73;0.70;;;0.00;99.90;;;0.12;100.00;-20684.75;5092488;28;20193;-66
2021/04/15 00:34:04;;;;;;;0.70;0.70;;;0.00;99.90;;;0.07;100.00;-20683.34;5071892;28;20193;-66
2021/04/15 00:36:32;;;;;;;0.70;0.70;;;0.00;99.90;;;0.18;100.00;-20686.56;5091643;28;20188;-66
2021/04/15 00:38:59;;;;;;;0.75;0.68;;;-0.10;99.90;;;0.09;100.00;-20683.91;5091654;28;20550;-66
2021/04/15 00:41:27;;;;;;;2.08;1.98;;;-0.10;99.90;;;0.14;100.00;-20685.31;5092750;28;20171;-67
2021/04/15 00:43:55;;;;;;;0.70;0.60;;;-0.20;99.90;;;-0.04;100.00;-20680.53;5091628;28;20188;-66
2021/04/15 00:46:53;;;;;;;0.70;0.60;;;-0.20;99.90;;;-0.04;100.00;-20680.41;5089781;28;20331;-66
2021/04/15 00:49:31;;;;;;;0.70;0.70;;;-0.20;99.90;;;0.01;100.00;-20681.66;5085454;28;20196;-67
2021/04/15 00:52:03;;;;;;;0.80;0.70;;;-0.30;99.90;;;-0.02;100.00;-20680.97;5092956;28;20187;-66
2021/04/15 00:54:41;;;;;;;0.70;0.60;;;-0.30;99.90;;;-0.05;100.00;-20680.25;5090715;28;20177;-67
2021/04/15 00:57:15;;;;;;;0.80;0.70;;;-0.30;99.90;;;-0.01;100.00;-20681.38;5091399;28;20303;-66
2021/04/15 00:59:43;;;;;;;0.80;0.73;;;-0.30;99.90;;;-0.02;100.00;-20681.09;5090038;28;20192;-66
2021/04/15 01:02:13;;;;;;;0.80;0.70;;;-0.30;99.90;;;-0.07;100.00;-20679.72;5071500;28;20184;-67
2021/04/15 01:04:41;;;;;;;0.70;0.60;;;-0.20;99.90;;;-0.01;100.00;-20681.38;5094017;28;20200;-66
2021/04/15 01:07:09;;;;;;;0.80;0.70;;;-0.30;99.90;;;-0.14;100.00;-20677.75;5093366;28;20208;-66
2021/04/15 01:09:36;;;;;;;0.75;0.70;;;-0.30;99.90;;;-0.09;100.00;-20679.00;5074598;28;20572;-67
2021/04/15 01:12:41;;;;;;;0.70;0.60;;;-0.40;99.90;;;-0.17;100.00;-20676.91;5074616;28;20216;-66
2021/04/15 01:15:24;;;;;;;1.00;1.00;;;-0.40;99.90;;;-0.19;100.00;-20676.19;5079883;28;20172;-66
2021/04/15 01:18:00;;;;;;;0.70;0.60;;;-0.50;99.90;;;-0.10;100.00;-20678.72;5075530;28;20730;-67
2021/04/15 01:21:08;;;;;;;0.70;0.65;;;-0.50;99.90;;;-0.24;100.00;-20674.94;5075604;28;20189;-66
2021/04/15 01:23:44;;;;;;;0.70;0.60;;;-0.50;99.90;;;-0.16;100.00;-20677.03;5049617;28;20201;-66
2021/04/15 01:27:03;;;;;;;0.70;0.60;;;-0.50;99.90;;;-0.23;100.00;-20675.22;5075364;28;20231;-67
2021/04/15 01:29:47;;;;;;;0.70;0.60;;;-0.40;99.90;;;-0.27;100.00;-20674.09;5075390;28;20200;-67
2021/04/15 01:32:21;;;;;;;0.70;0.60;;;-0.50;99.90;;;-0.34;100.00;-20672.28;5080379;28;20189;-66
2021/04/15 01:34:56;;;;;;;0.70;0.60;;;-0.60;99.90;;;-0.37;100.00;-20671.31;5094771;28;20184;-67
2021/04/15 01:37:33;;;;;;;1.27;1.17;;;-0.70;99.90;;;-0.30;100.00;-20673.25;5091101;28;20439;-67
2021/04/15 01:40:12;;;;;;;1.55;1.45;;;-0.80;99.90;;;-0.41;100.00;-20670.19;5088128;28;20188;-66
2021/04/15 01:42:48;;;;;;;0.70;0.70;;;-0.80;99.90;;;-0.55;100.00;-20666.53;5111346;28;20672;-67
2021/04/15 01:45:17;;;;;;;0.70;0.60;;;-0.70;99.90;;;-0.40;100.00;-20670.47;5094878;28;20207;-67
2021/04/15 01:47:52;;;;;;;0.70;0.60;;;-0.80;99.90;;;-0.51;100.00;-20667.53;5093358;28;20200;-66
2021/04/15 01:50:26;;;;;;;0.75;0.70;;;-0.90;99.90;;;-0.56;100.00;-20666.25;5075172;28;20181;-67
2021/04/15 01:53:02;;;;;;;0.70;0.60;;;-0.90;99.90;;;-0.66;100.00;-20663.47;5075495;28;20181;-65
2021/04/15 01:55:38;;;;;;;0.70;0.60;;;-0.90;99.90;;;-0.63;100.00;-20664.31;5081700;28;20180;-67
2021/04/15 01:58:14;;;;;;;0.80;0.70;;;-0.90;99.90;;;-0.68;100.00;-20662.75;5095217;28;20687;-67
2021/04/15 02:00:47;;;;;;;0.80;0.70;;;-1.00;99.90;;;-0.62;100.00;-20664.44;5094970;28;20176;-67
2021/04/15 02:03:19;;;;;;;0.75;0.70;;;-1.00;99.90;;;-0.71;100.00;-20662.06;5077077;28;20189;-67
2021/04/15 02:05:54;;;;;;;0.77;0.70;;;-0.90;99.90;;;-0.73;100.00;-20661.50;5092553;28;20200;-67
2021/04/15 02:08:26;;;;;;;0.80;0.70;;;-0.90;99.90;;;-0.64;100.00;-20664.03;5089026;28;20184;-66
2021/04/15 02:11:01;;;;;;;0.75;0.70;;;-1.00;99.90;;;-0.55;100.00;-20666.53;5074798;28;20181;-66
2021/04/15 02:13:32;;;;;;;0.80;0.70;;;-1.00;99.90;;;-0.60;100.00;-20665.13;5074526;28;20687;-66
2021/04/15 02:16:05;;;;;;;0.70;0.68;;;-1.00;99.90;;;-0.57;100.00;-20665.97;5083126;28;20624;-66
2021/04/15 02:18:38;;;;;;;0.80;0.70;;;-1.00;99.90;;;-0.50;100.00;-20667.81;5091254;28;20659;-66
2021/04/15 02:21:19;;;;;;;0.70;0.70;;;-0.80;99.90;;;-0.26;100.00;-20674.38;5074727;28;20219;-66
2021/04/15 02:23:51;;;;;;;0.70;0.70;;;-0.70;99.90;;;-0.33;100.00;-20672.41;5074633;28;20648;-66
2021/04/15 02:26:26;;;;;;;0.70;0.60;;;-0.80;99.90;;;-0.30;100.00;-20673.41;5086445;28;20212;-66
2021/04/15 02:29:01;;;;;;;0.70;0.60;;;-0.80;99.90;;;-0.53;100.00;-20667.09;5092556;28;20188;-66
2021/04/15 02:31:35;;;;;;;0.80;0.70;;;-0.80;99.90;;;-0.59;100.00;-20665.44;5094603;28;20172;-67
2021/04/15 02:34:08;;;;;;;0.70;0.60;;;-0.90;99.90;;;-0.65;100.00;-20663.75;5086711;28;20180;-67
2021/04/15 02:36:44;;;;;;;0.70;0.60;;;-0.90;99.90;;;-0.72;100.00;-20661.78;5094459;28;20652;-67
2021/04/15 02:39:17;;;;;;;0.80;0.70;;;-0.90;99.90;;;-0.71;100.00;-20661.91;5086981;28;20184;-67
2021/04/15 02:41:47;;;;;;;0.70;0.70;;;-1.00;99.90;;;-0.78;100.00;-20660.09;5074258;28;20653;-69
2021/04/15 02:44:22;;;;;;;0.70;0.60;;;-1.10;99.90;;;-0.78;100.00;-20660.25;5078619;28;20227;-67
2021/04/15 02:46:54;;;;;;;0.80;0.70;;;-1.20;99.90;;;-0.85;100.00;-20658.28;5078663;28;20200;-66
2021/04/15 02:49:25;;;;;;;1.05;0.93;;;-1.30;99.90;;;-0.90;100.00;-20656.75;5083161;28;20184;-67
2021/04/15 02:51:58;;;;;;;0.70;0.60;;;-1.30;99.90;;;-0.87;100.00;-20657.56;5094448;28;20585;-66
2021/04/15 02:54:29;;;;;;;0.70;0.60;;;-1.20;99.90;;;-0.82;100.00;-20659.13;5093067;28;20660;-67
2021/04/15 02:57:01;;;;;;;0.70;0.60;;;-1.20;99.90;;;-0.88;100.00;-20657.44;5092896;28;20242;-68
2021/04/15 02:59:32;;;;;;;0.70;0.60;;;-1.30;99.90;;;-0.80;100.00;-20659.53;5093682;28;20266;-67
2021/04/15 03:02:05;;;;;;;0.70;0.68;;;-1.30;99.90;;;-0.77;100.00;-20660.38;5090108;28;20189;-68
2021/04/15 03:04:34;;;;;;;0.80;0.70;;;-1.20;99.90;;;-0.86;100.00;-20657.84;5073916;28;20609;-67
2021/04/15 03:07:04;;;;;;;0.80;0.60;;;-1.20;99.90;;;-0.94;100.00;-20655.63;5073375;28;20181;-69
2021/04/15 03:09:34;;;;;;;0.80;0.80;;;-1.10;99.90;;;-0.99;100.00;-20654.50;5073684;28;20695;-67
2021/04/15 03:12:07;;;;;;;0.80;0.70;;;-1.20;99.90;;;-1.01;100.00;-20653.94;5074666;28;20212;-67
2021/04/15 03:14:42;;;;;;;0.70;0.60;;;-1.20;99.90;;;-0.98;100.00;-20654.63;5073728;28;20177;-67
2021/04/15 03:17:12;;;;;;;0.80;0.70;;;-1.30;99.90;;;-1.07;100.00;-20652.25;5073091;28;20201;-68
2021/04/15 03:19:45;;;;;;;0.70;0.70;;;-1.30;99.90;;;-1.06;100.00;-20652.53;5073269;28;20181;-67
2021/04/15 03:22:21;;;;;;;0.70;0.65;;;-1.20;99.90;;;-0.95;100.00;-20655.34;5073770;28;20177;-67
2021/04/15 03:24:53;;;;;;;0.70;0.70;;;-1.30;99.90;;;-1.01;100.00;-20653.94;5073390;28;20196;-67
2021/04/15 03:27:27;;;;;;;0.70;0.70;;;-1.40;99.90;;;-1.04;100.00;-20653.09;5072466;28;20597;-67
2021/04/15 03:30:01;;;;;;;0.70;0.70;;;-1.40;99.90;;;-1.08;100.00;-20651.97;5074506;28;20238;-67
2021/04/15 03:32:37;;;;;;;0.75;0.70;;;-1.40;99.90;;;-1.10;100.00;-20651.28;5074483;28;20193;-66
2021/04/15 03:35:11;;;;;;;0.70;0.70;;;-1.40;99.90;;;-1.11;100.00;-20651.00;5073789;28;20187;-68
2021/04/15 03:37:46;;;;;;;0.80;0.80;;;-1.40;99.90;;;-1.12;100.00;-20650.84;5080057;28;20227;-68
2021/04/15 03:40:16;;;;;;;0.80;0.80;;;-1.50;99.90;;;-1.17;100.00;-20649.44;5080823;28;20245;-67
2021/04/15 03:42:47;;;;;;;0.70;0.65;;;-1.40;99.90;;;-1.18;100.00;-20649.03;5072647;28;20227;-69
2021/04/15 03:45:20;;;;;;;0.80;0.80;;;-1.40;99.90;;;-1.07;100.00;-20652.25;5081167;28;20204;-66
2021/04/15 03:47:56;;;;;;;0.70;0.70;;;-1.50;99.90;;;-0.97;100.00;-20655.06;5071667;28;20193;-66
2021/04/15 03:50:31;;;;;;;0.90;0.90;;;-1.50;99.90;;;-0.97;100.00;-20655.06;5091072;28;20640;-66
2021/04/15 03:53:04;;;;;;;0.70;0.60;;;-1.40;99.90;;;-0.78;100.00;-20660.09;5093292;28;20510;-67
2021/04/15 03:55:36;;;;;;;0.70;0.65;;;-1.30;99.90;;;-0.98;100.00;-20654.63;5092316;28;20176;-67
2021/04/15 03:58:09;;;;;;;0.70;0.60;;;-1.20;99.90;;;-0.94;100.00;-20655.75;5080897;28;20205;-67
2021/04/15 04:00:44;;;;;;;0.75;0.70;;;-1.30;99.90;;;-1.03;100.00;-20653.22;5085258;28;20177;-67
2021/04/15 04:03:17;;;;;;;0.80;0.70;;;-1.40;99.90;;;-1.02;100.00;-20653.66;5087044;28;20187;-68
2021/04/15 04:05:50;;;;;;;0.80;0.70;;;-1.40;99.90;;;-1.03;100.00;-20653.38;5092982;28;20684;-67
2021/04/15 04:08:21;;;;;;;0.70;0.60;;;-1.40;99.90;;;-1.04;100.00;-20653.09;5093458;28;20177;-66
2021/04/15 04:10:55;;;;;;;0.80;0.80;;;-1.50;99.90;;;-1.14;100.00;-20650.28;5093190;28;20173;-66
2021/04/15 04:13:29;;;;;;;0.80;0.80;;;-1.40;99.90;;;-1.15;100.00;-20650.00;5092315;28;20215;-66
2021/04/15 04:16:06;;;;;;;0.80;0.70;;;-1.50;99.90;;;-1.14;100.00;-20650.28;5092989;28;20229;-68
2021/04/15 04:18:50;;;;;;;0.70;0.70;;;-1.60;99.90;;;-1.32;100.00;-20645.25;5089831;28;20183;-67
2021/04/15 04:21:22;;;;;;;0.70;0.60;;;-1.60;99.90;;;-1.38;100.00;-20643.56;5083923;28;20242;-66
2021/04/15 04:23:58;;;;;;;0.70;0.60;;;-1.60;99.90;;;-1.34;100.00;-20644.69;5093034;28;20555;-67
2021/04/15 04:26:30;;;;;;;0.80;0.70;;;-1.70;99.90;;;-1.42;100.00;-20642.44;5084252;28;20577;-66
2021/04/15 04:29:19;;;;;;;0.80;0.70;;;-1.70;99.90;;;-1.32;100.00;-20645.25;5080733;28;20188;-67
2021/04/15 04:31:51;;;;;;;0.70;0.70;;;-1.70;99.90;;;-1.36;100.00;-20644.28;5090430;28;20259;-68
2021/04/15 04:34:22;;;;;;;0.70;0.70;;;-1.70;99.90;;;-1.38;100.00;-20643.72;5080826;28;20188;-67
2021/04/15 04:36:53;;;;;;;0.80;0.80;;;-1.70;99.90;;;-1.32;100.00;-20645.25;5092638;28;20254;-67
2021/04/15 04:39:22;;;;;;;0.70;0.70;;;-1.70;99.90;;;-1.22;100.00;-20648.19;5096063;28;20184;-66
2021/04/15 04:41:58;;;;;;;0.80;0.77;;;-1.70;99.90;;;-1.17;100.00;-20649.31;5096793;28;20539;-67
2021/04/15 04:44:32;;;;;;;0.73;0.63;;;-1.70;99.90;;;-1.14;100.00;-20650.28;5096742;28;20255;-67
2021/04/15 04:47:09;;;;;;;0.70;0.70;;;-1.60;99.90;;;-1.11;100.00;-20651.13;5094023;28;20592;-67
2021/04/15 04:49:44;;;;;;;0.70;0.70;;;-1.50;99.90;;;-0.97;100.00;-20655.06;5084472;28;20177;-67
2021/04/15 04:52:21;;;;;;;1.13;1.08;;;-1.40;99.90;;;-0.71;100.00;-20661.91;5092592;28;20188;-69
2021/04/15 04:54:48;;;;;;;2.25;1.15;;;-1.30;99.90;;;-0.59;100.00;-20665.44;5095296;28;20563;-67
2021/04/15 04:57:22;;;;;;;0.80;0.70;;;-1.10;99.90;;;-0.47;100.00;-20668.50;5094220;28;20239;-67
2021/04/15 04:59:58;;;;;;;0.70;0.60;;;-1.00;99.90;;;-0.40;100.00;-20670.47;5111650;28;20644;-67
2021/04/15 05:02:25;;;;;;;0.70;0.70;;;-1.00;99.90;;;-0.23;100.00;-20675.22;5075718;28;20189;-67
2021/04/15 05:05:05;;;;;;;0.80;0.70;;;-0.80;99.90;;;-0.11;100.00;-20678.59;5095169;28;20294;-67
2021/04/15 05:07:36;;;;;;;0.80;0.70;;;-0.70;99.90;;;-0.09;100.00;-20679.16;5096380;28;20172;-66
2021/04/15 05:10:05;;;;;;;0.70;0.70;;;-0.60;99.90;;;-0.02;100.00;-20681.09;5094376;28;20215;-67
2021/04/15 05:12:35;;;;;;;0.70;0.65;;;-0.60;99.90;;;0.01;100.00;-20681.81;5095994;28;20208;-66
2021/04/15 05:15:05;;;;;;;0.70;0.60;;;-0.60;99.90;;;0.03;100.00;-20682.22;5094656;28;20192;-67
2021/04/15 05:17:36;;;;;;;0.80;0.75;;;-0.60;99.90;;;0.05;100.00;-20682.94;5095947;28;20218;-67
2021/04/15 05:20:11;;;;;;;0.70;0.60;;;-0.60;99.90;;;0.03;100.00;-20682.38;5091575;28;20210;-67
2021/04/15 05:22:46;;;;;;;0.70;0.63;;;-0.60;99.90;;;0.02;100.00;-20681.94;5095808;28;20278;-67
2021/04/15 05:25:19;;;;;;;0.70;0.60;;;-0.60;99.90;;;0.04;100.00;-20682.66;5093908;28;20215;-67
2021/04/15 05:27:47;;;;;;;0.77;0.70;;;-0.60;99.90;;;0.03;100.00;-20682.22;5095956;28;20616;-66
2021/04/15 05:30:28;;;;;;;0.70;0.63;;;-0.60;99.90;;;0.04;100.00;-20682.50;5094224;28;20496;-67
2021/04/15 05:33:01;;;;;;;0.70;0.63;;;-0.60;99.90;;;0.02;100.00;-20681.94;5088711;28;20181;-67
2021/04/15 05:35:36;;;;;;;0.70;0.68;;;-0.60;99.90;;;0.07;100.00;-20683.34;5091853;28;20189;-68
2021/04/15 05:38:06;;;;;;;0.70;0.60;;;-0.50;99.90;;;0.12;100.00;-20684.75;5082163;28;20188;-67
2021/04/15 05:40:35;;;;;;;0.70;0.63;;;-0.40;99.90;;;0.13;100.00;-20685.03;5074831;28;20197;-67
2021/04/15 05:43:27;;;;;;;0.70;0.60;;;-0.40;99.90;;;0.13;100.00;-20685.03;5077961;28;20267;-68
2021/04/15 05:46:05;;;;;;;0.70;0.60;;;-0.40;99.90;;;0.25;100.00;-20688.38;5075457;28;20204;-67
2021/04/15 05:48:33;;;;;;;0.70;0.70;;;-0.40;99.90;;;0.37;100.00;-20691.75;5083840;28;20246;-67
2021/04/15 05:51:11;;;;;;;0.80;0.70;;;-0.30;99.90;;;0.55;100.00;-20696.50;5085231;28;20231;-67
2021/04/15 05:53:44;;;;;;;0.70;0.60;;;-0.10;99.90;;;0.74;100.00;-20701.81;5082219;28;20196;-66
2021/04/15 05:56:16;;;;;;;0.70;0.60;;;0.00;99.90;;;0.96;100.00;-20707.97;5090609;28;20192;-67
2021/04/15 05:58:56;;;;;;;0.70;0.68;;;0.20;99.90;;;1.17;100.00;-20713.56;5088098;28;20548;-68
2021/04/15 06:01:34;;;;;;;0.75;0.70;;;0.40;99.90;;;1.34;100.00;-20718.31;5091467;28;20188;-67
2021/04/15 06:04:16;;;;;;;0.75;0.70;;;0.60;99.90;;;1.58;100.00;-20724.75;5076523;28;20592;-68
2021/04/15 06:06:45;;;;;;;0.70;0.70;;;0.70;99.90;;;1.94;100.00;-20734.78;5091106;28;20196;-67
2021/04/15 06:09:13;;;;;;;0.70;0.60;;;0.80;99.90;;;2.02;100.00;-20736.88;5092377;28;20590;-67
2021/04/15 06:12:00;;;;;;;0.80;0.80;;;1.00;99.90;;;2.12;100.00;-20739.53;5088750;28;20209;-67
2021/04/15 06:14:44;;;;;;;1.45;1.35;;;1.20;99.90;;;2.45;100.00;-20748.63;5094878;28;20176;-68
2021/04/15 06:17:32;;;;;;;0.80;0.70;;;1.40;99.90;;;2.69;100.00;-20755.19;5090212;28;20199;-68
2021/04/15 06:20:10;;;;;;;0.70;0.60;;;1.60;99.90;;;2.76;100.00;-20757.00;5080426;28;20181;-69
2021/04/15 06:22:42;;;;;;;0.77;0.70;;;1.80;99.90;;;2.67;100.00;-20754.63;5089181;28;20192;-66
2021/04/15 06:25:15;;;;;;;0.70;0.60;;;1.80;99.90;;;2.76;100.00;-20757.13;5081854;28;20216;-66
2021/04/15 06:27:44;;;;;;;1.33;1.23;;;1.80;99.90;;;2.66;100.00;-20754.34;5084823;28;20628;-66
2021/04/15 06:30:18;;;;;;;0.70;0.50;;;1.70;99.90;;;2.80;100.00;-20758.25;5094338;28;20235;-66
2021/04/15 06:32:53;;;;;;;0.80;0.80;;;2.00;99.90;;;3.25;100.00;-20770.53;5085102;28;20552;-66
2021/04/15 06:35:25;;;;;;;0.70;0.60;;;2.80;99.90;;;3.77;100.00;-20784.75;5076888;28;20211;-66
2021/04/15 06:38:04;;;;;;;0.70;0.60;;;2.90;99.90;;;4.05;100.00;-20792.28;5093004;28;20188;-66
2021/04/15 06:41:06;;;;;;;0.70;0.60;;;2.80;99.90;;;4.05;100.00;-20792.28;5081526;28;20188;-66
2021/04/15 06:44:47;;;;;;;0.70;0.60;;;2.90;99.90;;;4.34;100.00;-20800.38;5087796;28;20206;-67
2021/04/15 06:48:38;;;;;;;0.70;0.60;;;3.00;99.90;;;4.67;100.00;-20809.13;5080521;28;20185;-66
2021/04/15 06:51:37;;;;;;;0.70;0.60;;;3.20;99.90;;;4.69;100.00;-20809.84;5070053;28;20196;-66
2021/04/15 06:54:36;;;;;;;0.70;0.60;;;3.30;99.90;;;4.99;100.00;-20817.91;5075926;28;20199;-67
2021/04/15 06:57:31;;;;;;;0.70;0.60;;;3.60;99.90;;;4.83;100.00;-20813.59;5073327;28;20219;-66
2021/04/15 07:00:40;;;;;;;0.88;0.80;;;4.00;99.90;;;5.08;100.00;-20820.56;5073215;28;20439;-69
2021/04/15 07:03:22;;;;;;;0.70;0.60;;;4.10;99.90;;;5.68;100.00;-20836.84;5075331;28;20222;-66
2021/04/15 07:05:58;;;;;;;0.70;0.60;;;4.30;99.90;;;6.21;100.00;-20851.31;5077133;28;20306;-67
2021/04/15 07:09:13;;;;;;;0.70;0.60;;;4.80;99.90;;;6.29;100.00;-20853.53;5084333;28;20429;-67
2021/04/15 07:11:59;;;;;;;0.70;0.70;;;5.20;99.90;;;7.18;100.00;-20877.72;5072255;28;20450;-66
2021/04/15 07:14:48;;;;;;;0.73;0.73;;;5.30;99.90;;;7.81;100.00;-20894.66;5086749;28;20430;-66
2021/04/15 07:17:41;;;;;;;0.70;0.50;;;5.30;99.90;;;8.49;100.00;-20913.09;5087354;28;20432;-66
2021/04/15 07:20:42;;;;;;;0.70;0.60;;;5.20;99.90;;;7.75;100.00;-20893.25;5088194;28;20433;-66
2021/04/15 07:24:08;;;;;;;0.70;0.60;;;5.50;99.90;;;7.57;100.00;-20888.28;5079576;28;20772;-66
2021/04/15 07:27:03;;;;;;;0.80;0.70;;;5.90;99.90;;;7.50;100.00;-20886.31;5077568;28;20475;-67
2021/04/15 07:29:50;;;;;;;0.70;0.60;;;6.20;99.90;;;8.42;100.00;-20911.31;5077446;28;20968;-66
2021/04/15 07:32:51;;;;;;;0.80;0.70;;;6.50;99.90;;;8.62;100.00;-20916.84;5081796;28;20441;-66
2021/04/15 07:35:44;;;;;;;0.80;0.70;;;6.80;99.90;;;8.55;100.00;-20914.91;5076784;28;20468;-67
2021/04/15 07:38:42;;;;;;;1.43;1.13;;;7.10;99.90;;;9.72;100.00;-20946.50;5080352;28;20533;-66
2021/04/15 07:41:36;;;;;;;0.70;0.60;;;7.50;99.90;;;9.63;100.00;-20944.28;5081514;28;20445;-67
2021/04/15 07:44:26;;;;;;;1.20;1.10;;;7.90;99.90;;;9.93;100.00;-20952.31;5081305;28;20443;-66
2021/04/15 07:47:30;;;;;;;0.80;0.70;;;8.00;99.90;;;10.27;100.00;-20961.47;5089331;28;20450;-68
2021/04/15 07:50:36;;;;;;;0.80;0.70;;;8.40;99.90;;;11.41;100.00;-20992.44;5075231;28;20952;-67
2021/04/15 07:53:57;;;;;;;0.73;0.67;;;8.30;99.90;;;10.84;100.00;-20976.94;5075423;28;20761;-68
2021/04/15 07:57:06;;;;;;;0.80;0.70;;;8.50;99.90;;;11.40;100.00;-20992.16;5089363;28;20436;-67
2021/04/15 08:00:22;;;;;;;0.70;0.60;;;9.00;99.90;;;10.97;100.00;-20980.56;5037548;28;20446;-67
2021/04/15 08:03:28;;;;;;;0.70;0.60;;;8.90;99.90;;;10.77;100.00;-20975.03;5062842;28;20537;-68
2021/04/15 08:06:25;;;;;;;0.70;0.60;;;9.20;99.90;;;10.92;100.00;-20979.16;5090048;28;20474;-68
2021/04/15 08:09:30;;;;;;;0.80;0.80;;;9.10;99.90;;;10.50;100.00;-20967.81;5090676;28;20954;-68
2021/04/15 08:12:28;;;;;;;0.83;0.83;;;8.80;99.90;;;11.30;100.00;-20989.41;5090059;28;20454;-68
2021/04/15 08:15:27;;;;;;;0.80;0.67;;;9.50;99.90;;;12.22;100.00;-21014.25;5076717;28;20438;-65
2021/04/15 08:18:20;;;;;;;0.70;0.60;;;9.80;99.90;;;13.04;100.00;-21036.47;5082909;28;20804;-68
2021/04/15 08:21:23;;;;;;;1.47;1.37;;;10.00;99.90;;;14.43;100.00;-21074.09;5076624;28;20426;-68
2021/04/15 08:24:37;;;;;;;0.70;0.60;;;9.70;99.90;;;13.08;100.00;-21037.59;5059848;28;20439;-67
2021/04/15 08:27:49;;;;;;;0.77;0.60;;;9.80;99.90;;;13.94;100.00;-21060.75;5086230;28;20455;-67
2021/04/15 08:30:34;;;;;;;0.70;0.60;;;10.50;99.90;;;12.99;100.00;-21035.22;5087908;28;20421;-69
2021/04/15 08:33:20;;;;;;;0.70;0.60;;;10.60;99.90;;;15.64;100.00;-21106.56;5080107;28;20414;-67
2021/04/15 08:36:21;;;;;;;0.80;0.70;;;10.20;99.90;;;14.21;100.00;-21068.19;5087913;28;20772;-67
2021/04/15 08:39:01;;;;;;;1.03;1.03;;;11.10;99.90;;;14.23;100.00;-21068.59;5096148;28;20433;-67
2021/04/15 08:41:45;;;;;;;1.30;1.00;;;11.60;99.90;;;14.23;100.00;-21068.59;5091668;28;20405;-68
2021/04/15 08:45:01;;;;;;;1.63;1.50;;;11.60;99.90;;;15.50;100.00;-21102.84;5076814;28;20192;-67
2021/04/15 08:48:07;;;;;;;2.10;1.00;;;11.30;99.90;;;17.26;100.00;-21150.09;5060486;28;20462;-68
2021/04/15 08:50:48;;;;;;;0.70;0.60;;;11.30;99.90;;;17.59;100.00;-21159.00;5067619;28;20967;-65
2021/04/15 08:53:57;;;;;;;0.70;0.60;;;11.40;99.90;;;18.81;94.23;-21191.88;5083796;28;20944;-67
2021/04/15 08:56:30;;;;;;;1.03;0.93;;;11.20;99.90;;;18.88;90.57;-21193.66;5087746;28;20925;-67
2021/04/15 08:59:19;;;;;;;1.97;1.03;;;11.10;99.90;;;16.49;94.34;-21129.38;5076845;28;20447;-67
2021/04/15 09:01:57;;;;;;;0.73;0.60;;;10.00;99.90;;;15.30;100.00;-21097.50;5081492;28;20423;-68
2021/04/15 09:04:42;;;;;;;4.23;1.53;;;9.60;99.90;;;14.57;100.00;-21077.69;5078058;28;20445;-67
2021/04/15 09:07:12;;;;;;;1.03;0.93;;;9.70;99.90;;;13.99;100.00;-21062.25;5075796;28;20462;-68
2021/04/15 09:09:58;;;;;;;0.80;0.80;;;8.90;99.90;;;13.25;100.00;-21042.13;5074484;28;20417;-67
2021/04/15 09:13:01;;;;;;;0.80;0.70;;;8.60;99.90;;;14.40;100.00;-21073.28;5088970;28;20449;-68
2021/04/15 09:15:35;;;;;;;0.70;0.60;;;9.90;99.90;;;16.29;95.42;-21124.00;5073686;28;20449;-67
2021/04/15 09:18:11;;;;;;;0.70;0.60;;;10.80;99.90;;;17.49;88.37;-21156.25;5075222;28;20472;-67
2021/04/15 09:20:47;;;;;;;0.80;0.60;;;10.90;99.90;;;17.87;85.56;-21166.56;5075616;28;20433;-67
2021/04/15 09:23:44;;;;;;;0.70;0.60;;;11.60;99.90;;;18.49;79.16;-21183.13;5074943;28;20447;-67
2021/04/15 09:26:32;;;;;;;0.93;0.80;;;11.80;97.40;;;18.06;81.90;-21171.75;5079578;28;20437;-68
2021/04/15 09:29:20;;;;;;;0.93;0.83;;;12.10;93.00;;;18.46;82.48;-21182.31;5095148;28;20514;-68
2021/04/15 09:31:54;;;;;;;0.77;0.70;;;12.20;89.60;;;19.42;80.14;-21208.16;5095557;28;20907;-67
2021/04/15 09:35:11;;;;;;;0.80;0.60;;;12.20;75.80;;;17.67;83.32;-21161.19;5085618;28;20468;-68
2021/04/15 09:38:27;;;;;;;0.70;0.60;;;12.80;72.50;;;16.89;86.14;-21140.22;5027787;28;20466;-68
2021/04/15 09:41:25;;;;;;;0.80;0.67;;;13.00;61.70;;;15.43;91.34;-21101.06;5015451;28;20834;-68
2021/04/15 09:44:10;;;;;;;0.70;0.50;;;12.10;53.70;;;15.39;90.76;-21099.97;5089126;28;21025;-68
2021/04/15 09:46:54;;;;;;;0.90;0.80;;;10.70;54.10;;;13.23;100.00;-21041.56;5075816;28;20458;-68
2021/04/15 09:49:37;;;;;;;0.70;0.60;;;10.40;57.40;;;11.99;100.00;-21008.06;5088821;28;20795;-68
2021/04/15 09:52:47;;;;;;;0.80;0.70;;;10.40;59.30;;;11.47;100.00;-20993.97;5090920;28;20854;-67
2021/04/15 09:55:45;;;;;;;0.70;0.60;;;10.20;58.80;;;12.01;100.00;-21008.59;5089908;28;20441;-67
2021/04/15 09:58:25;;;;;;;0.70;0.60;;;9.90;59.80;;;13.00;100.00;-21035.38;5090529;28;20464;-67
2021/04/15 10:00:58;;;;;;;0.77;0.70;;;9.90;58.10;;;13.12;100.00;-21038.53;5093340;28;20439;-67
2021/04/15 10:03:46;;;;;;;0.70;0.70;;;10.50;54.80;;;13.90;100.00;-21059.63;5091617;28;20769;-67
2021/04/15 10:06:22;;;;;;;0.70;0.60;;;10.70;49.80;;;12.05;100.00;-21009.84;5084964;28;20465;-68
2021/04/15 10:09:08;;;;;;;1.20;0.93;;;10.50;49.10;;;12.82;100.00;-21030.53;5085176;28;20434;-67
2021/04/15 10:11:59;;;;;;;0.80;0.60;;;10.30;52.50;;;11.76;100.00;-21001.97;5087841;28;20454;-67
2021/04/15 10:14:46;;;;;;;0.80;0.70;;;9.70;51.50;;;11.84;100.00;-21004.03;5079994;28;20444;-67
2021/04/15 10:17:37;;;;;;;0.70;0.60;;;9.70;54.60;;;12.66;100.00;-21026.13;5086193;28;20461;-68
2021/04/15 10:20:55;;;;;;;0.80;0.60;;;10.70;51.20;;;15.61;99.27;-21105.88;5082653;28;20439;-68
2021/04/15 10:23:53;;;;;;;0.80;0.67;;;12.50;42.50;;;16.14;89.92;-21120.03;5082410;28;20439;-67
2021/04/15 10:27:10;;;;;;;1.27;0.87;;;11.70;35.60;;;15.88;89.18;-21113.16;5077189;28;20480;-68
2021/04/15 10:30:08;;;;;;;0.80;0.70;;;12.10;37.80;;;14.60;87.76;-21078.66;5086154;28;20480;-67
2021/04/15 10:33:25;;;;;;;0.70;0.60;;;10.90;34.70;;;14.54;92.34;-21076.84;5079966;28;20541;-68
2021/04/15 10:36:43;;;;;;;0.70;0.60;;;11.20;38.00;;;13.51;90.38;-21049.31;5082156;28;20426;-67
2021/04/15 10:39:57;;;;;;;0.70;0.60;;;10.90;34.50;;;13.77;92.79;-21056.19;5087565;28;20880;-67
2021/04/15 10:43:10;;;;;;;0.77;0.70;;;10.30;36.50;;;13.13;98.38;-21038.97;5082981;28;20490;-69
2021/04/15 10:46:21;;;;;;;0.80;0.70;;;11.00;40.30;;;13.90;95.60;-21059.78;5087153;28;20440;-67
2021/04/15 10:49:01;;;;;;;0.80;0.70;;;11.20;34.20;;;15.87;89.18;-21112.75;5081395;28;20758;-67
2021/04/15 10:51:35;;;;;;;0.70;0.60;;;12.40;29.60;;;15.52;89.48;-21103.25;5085395;28;20445;-67
2021/04/15 10:54:23;;;;;;;0.70;0.60;;;12.70;28.00;;;15.28;90.63;-21096.94;5072697;28;20420;-67
2021/04/15 10:56:54;;;;;;;0.70;0.60;;;12.90;30.50;;;16.03;87.79;-21117.00;5072692;28;20446;-67
2021/04/15 10:59:35;;;;;;;0.70;0.70;;;13.50;22.80;;;14.60;86.02;-21078.50;5073255;28;20411;-67
2021/04/15 11:02:26;;;;;;;0.80;0.70;;;12.20;22.70;;;14.49;86.31;-21075.75;5081705;28;20402;-68
2021/04/15 11:05:12;;;;;;;0.70;0.60;;;13.00;22.00;;;15.32;84.97;-21098.03;5079772;28;20655;-67
2021/04/15 11:07:39;;;;;;;0.80;0.60;;;13.40;20.60;;;15.86;83.01;-21112.47;5079855;28;20454;-68
2021/04/15 11:10:13;;;;;;;0.80;0.60;;;13.10;18.40;;;16.90;82.97;-21140.63;5086726;28;20441;-68
2021/04/15 11:12:41;;;;;;;0.73;0.60;;;13.60;18.30;;;17.42;84.03;-21154.47;5080970;28;20828;-67